createdAt,value
2023-01-19T00:00:15.020Z,9.44
2023-01-19T00:01:25.618Z,9.42
2023-01-19T00:02:34.691Z,9.41
2023-01-19T00:03:43.943Z,9.43
2023-01-19T00:04:52.481Z,9.43
2023-01-19T00:06:07.335Z,9.44
2023-01-19T00:08:35.434Z,9.55
2023-01-19T00:09:45.543Z,9.46
2023-01-19T00:10:57.093Z,9.44
2023-01-19T00:12:07.632Z,9.44
2023-01-19T00:13:17.503Z,9.44
2023-01-19T00:14:26.792Z,9.44
2023-01-19T00:15:36.534Z,9.43
2023-01-19T00:16:45.508Z,9.42
2023-01-19T00:17:55.069Z,9.41
2023-01-19T00:19:04.152Z,9.40
2023-01-19T00:20:13.084Z,9.40
2023-01-19T00:21:22.965Z,9.44
2023-01-19T00:22:31.514Z,9.39
2023-01-19T00:24:57.360Z,9.48
2023-01-19T00:26:09.153Z,9.38
2023-01-19T00:27:18.680Z,9.38
2023-01-19T00:28:29.571Z,9.41
2023-01-19T00:29:38.069Z,9.40
2023-01-19T00:30:46.934Z,9.43
2023-01-19T00:31:55.563Z,9.42
2023-01-19T00:33:04.776Z,9.43
2023-01-19T00:34:14.425Z,9.43
2023-01-19T00:35:23.765Z,9.44
2023-01-19T00:36:34.086Z,9.46
2023-01-19T00:37:45.077Z,9.42
2023-01-19T00:38:54.805Z,9.37
2023-01-19T00:41:22.227Z,9.46
2023-01-19T00:42:40.085Z,9.38
2023-01-19T00:43:48.996Z,9.41
2023-01-19T00:44:59.050Z,9.45
2023-01-19T00:47:22.830Z,9.60
2023-01-19T00:48:31.524Z,9.49
2023-01-19T00:49:40.423Z,9.49
2023-01-19T00:50:49.625Z,9.51
2023-01-19T00:51:59.284Z,9.51
2023-01-19T00:53:09.018Z,9.50
2023-01-19T00:54:18.199Z,9.49
2023-01-19T00:56:46.693Z,9.63
2023-01-19T00:57:57.679Z,9.55
2023-01-19T00:59:06.674Z,9.62
2023-01-19T01:00:22.594Z,9.68
2023-01-19T01:01:45.071Z,9.74
2023-01-19T01:02:44.396Z,9.75
2023-01-19T01:03:54.540Z,9.74
2023-01-19T01:05:05.923Z,9.78
2023-01-19T01:06:16.535Z,9.73
2023-01-19T01:07:25.363Z,9.70
2023-01-19T01:08:35.537Z,9.63
2023-01-19T01:09:45.203Z,9.60
2023-01-19T01:10:55.745Z,9.59
2023-01-19T01:12:04.726Z,9.59
2023-01-19T01:13:22.525Z,9.67
2023-01-19T01:14:27.207Z,9.76
2023-01-19T01:15:37.210Z,9.83
2023-01-19T01:16:46.108Z,9.87
2023-01-19T01:17:55.860Z,9.90
2023-01-19T01:19:05.705Z,9.95
2023-01-19T01:20:19.440Z,9.94
2023-01-19T01:21:30.297Z,9.92
2023-01-19T01:22:40.224Z,9.88
2023-01-19T01:23:49.251Z,9.80
2023-01-19T01:24:59.058Z,9.77
2023-01-19T01:26:09.205Z,9.76
2023-01-19T01:27:18.994Z,9.72
2023-01-19T01:28:27.611Z,9.70
2023-01-19T01:29:37.197Z,9.67
2023-01-19T01:30:46.200Z,9.62
2023-01-19T01:31:55.270Z,9.60
2023-01-19T01:33:03.868Z,9.58
2023-01-19T01:34:13.162Z,9.58
2023-01-19T01:35:21.670Z,9.55
2023-01-19T01:37:48.461Z,9.60
2023-01-19T01:40:16.704Z,9.58
2023-01-19T01:41:27.847Z,9.47
2023-01-19T01:42:37.886Z,9.45
2023-01-19T01:43:55.359Z,9.39
2023-01-19T01:45:18.053Z,9.35
2023-01-19T01:46:34.921Z,9.31
2023-01-19T01:47:48.469Z,9.27
2023-01-19T01:49:01.043Z,9.27
2023-01-19T01:50:18.462Z,9.26
2023-01-19T01:53:06.562Z,9.27
2023-01-19T01:54:25.374Z,9.13
2023-01-19T01:57:04.361Z,9.20
2023-01-19T01:58:16.551Z,9.09
2023-01-19T01:59:28.968Z,9.09
2023-01-19T02:00:59.457Z,9.08
2023-01-19T02:02:33.379Z,9.09
2023-01-19T02:03:44.239Z,9.12
2023-01-19T02:05:00.832Z,9.14
2023-01-19T02:06:12.370Z,9.17
2023-01-19T02:07:55.252Z,9.21
2023-01-19T02:09:27.237Z,9.26
2023-01-19T02:10:54.270Z,9.31
2023-01-19T02:12:22.834Z,9.39
2023-01-19T02:13:35.399Z,9.45
2023-01-19T02:14:44.951Z,9.49
2023-01-19T02:16:01.395Z,9.50
2023-01-19T02:17:11.196Z,9.52
2023-01-19T02:18:22.629Z,9.53
2023-01-19T02:21:20.428Z,9.67
2023-01-19T02:22:38.104Z,9.57
2023-01-19T02:23:51.313Z,9.59
2023-01-19T02:25:03.132Z,9.58
2023-01-19T02:26:31.022Z,9.58
2023-01-19T02:27:41.149Z,9.58
2023-01-19T02:29:02.312Z,9.58
2023-01-19T02:30:13.904Z,9.56
2023-01-19T02:31:25.483Z,9.53
2023-01-19T02:32:34.256Z,9.52
2023-01-19T02:33:43.450Z,9.51
2023-01-19T02:34:52.757Z,9.51
2023-01-19T02:36:04.734Z,9.49
2023-01-19T02:37:16.144Z,9.51
2023-01-19T02:38:27.870Z,9.46
2023-01-19T02:39:42.657Z,9.39
2023-01-19T02:40:54.878Z,9.36
2023-01-19T02:42:10.287Z,9.42
2023-01-19T02:43:19.809Z,9.42
2023-01-19T02:44:31.317Z,9.43
2023-01-19T02:45:41.756Z,9.44
2023-01-19T02:46:54.966Z,9.44
2023-01-19T02:48:05.363Z,9.46
2023-01-19T02:50:41.267Z,9.56
2023-01-19T02:51:50.500Z,9.44
2023-01-19T02:53:03.370Z,9.41
2023-01-19T02:54:33.969Z,9.41
2023-01-19T02:55:46.255Z,9.40
2023-01-19T02:57:02.550Z,9.39
2023-01-19T02:58:40.423Z,9.41
2023-01-19T03:00:14.386Z,9.41
2023-01-19T03:01:54.148Z,9.42
2023-01-19T03:03:28.188Z,9.45
2023-01-19T03:04:59.471Z,9.45
2023-01-19T03:06:15.194Z,9.46
2023-01-19T03:07:44.660Z,9.48
2023-01-19T03:09:02.779Z,9.48
2023-01-19T03:11:36.894Z,9.53
2023-01-19T03:13:11.475Z,9.38
2023-01-19T03:14:24.951Z,9.35
2023-01-19T03:17:00.194Z,9.36
2023-01-19T03:18:12.873Z,9.20
2023-01-19T03:19:27.417Z,9.16
2023-01-19T03:20:38.430Z,9.13
2023-01-19T03:21:51.522Z,9.08
2023-01-19T03:23:04.744Z,9.06
2023-01-19T03:24:15.942Z,9.03
2023-01-19T03:25:26.080Z,9.05
2023-01-19T03:26:45.302Z,9.07
2023-01-19T03:27:58.128Z,9.10
2023-01-19T03:29:10.741Z,9.13
2023-01-19T03:30:24.160Z,9.14
2023-01-19T03:31:34.218Z,9.13
2023-01-19T03:34:13.632Z,9.20
2023-01-19T03:35:26.548Z,9.08
2023-01-19T03:36:39.731Z,9.05
2023-01-19T03:37:53.795Z,9.02
2023-01-19T03:39:06.159Z,9.00
2023-01-19T03:40:17.327Z,8.94
2023-01-19T03:41:29.810Z,8.92
2023-01-19T03:42:40.981Z,8.89
2023-01-19T03:43:52.276Z,8.86
2023-01-19T03:45:02.909Z,8.86
2023-01-19T03:46:14.220Z,8.82
2023-01-19T03:47:25.996Z,8.80
2023-01-19T03:48:35.327Z,8.80
2023-01-19T03:51:23.971Z,8.88
2023-01-19T03:52:34.201Z,8.76
2023-01-19T03:53:44.244Z,8.79
2023-01-19T03:54:53.276Z,8.80
2023-01-19T03:56:03.025Z,8.80
2023-01-19T03:57:12.734Z,8.79
2023-01-19T03:58:22.278Z,8.80
2023-01-19T04:00:47.581Z,8.91
2023-01-19T04:01:56.267Z,8.78
2023-01-19T04:03:07.388Z,8.79
2023-01-19T07:56:58.045Z,4.66
2023-01-19T07:58:07.437Z,4.64
2023-01-19T07:59:17.081Z,4.72
2023-01-19T08:00:26.400Z,4.85
2023-01-19T08:01:36.252Z,4.95
2023-01-19T08:02:45.481Z,5.08
2023-01-19T08:03:54.136Z,5.24
2023-01-19T08:05:03.285Z,5.41
2023-01-19T08:07:42.081Z,5.85
2023-01-19T08:08:50.897Z,5.87
2023-01-19T08:09:59.503Z,5.96
2023-01-19T08:11:09.073Z,6.09
2023-01-19T08:12:18.294Z,6.21
2023-01-19T08:14:42.627Z,6.51
2023-01-19T08:15:53.267Z,6.46
2023-01-19T08:17:03.182Z,6.51
2023-01-19T08:18:13.606Z,6.62
2023-01-19T08:19:22.546Z,6.62
2023-01-19T08:20:32.629Z,6.65
2023-01-19T08:21:41.705Z,6.73
2023-01-19T08:22:50.889Z,6.89
2023-01-19T08:24:01.005Z,6.91
2023-01-19T08:25:10.790Z,6.95
2023-01-19T08:26:24.456Z,6.91
2023-01-19T08:27:33.910Z,6.96
2023-01-19T08:28:42.587Z,6.97
2023-01-19T08:29:54.353Z,6.94
2023-01-19T08:31:18.997Z,6.85
2023-01-19T08:32:15.179Z,6.86
2023-01-19T08:33:24.887Z,6.91
2023-01-19T08:35:51.987Z,6.95
2023-01-19T08:37:01.902Z,6.86
2023-01-19T08:38:11.757Z,6.81
2023-01-19T08:39:22.484Z,6.75
2023-01-19T08:40:36.163Z,6.72
2023-01-19T08:41:45.724Z,6.73
2023-01-19T08:43:04.405Z,6.79
2023-01-19T08:44:13.526Z,6.81
2023-01-19T08:45:24.141Z,6.85
2023-01-19T08:46:33.269Z,6.86
2023-01-19T08:48:58.272Z,7.09
2023-01-19T08:50:11.123Z,7.03
2023-01-19T08:51:21.012Z,7.06
2023-01-19T08:52:31.301Z,7.08
2023-01-19T08:53:41.526Z,7.07
2023-01-19T08:54:50.049Z,7.13
2023-01-19T08:56:04.970Z,7.18
2023-01-19T08:57:15.558Z,7.27
2023-01-19T08:58:24.170Z,7.29
2023-01-19T08:59:33.151Z,7.33
2023-01-19T09:00:42.711Z,7.37
2023-01-19T09:03:09.023Z,7.43
2023-01-19T09:04:17.971Z,7.36
2023-01-19T09:05:27.747Z,7.33
2023-01-19T09:06:36.880Z,7.39
2023-01-19T10:24:06.082Z,6.26
2023-01-19T10:25:18.516Z,6.22
2023-01-19T10:26:36.369Z,6.33
2023-01-19T10:27:47.070Z,6.45
2023-01-19T10:30:27.191Z,6.92
2023-01-19T10:31:39.984Z,6.95
2023-01-19T10:32:50.119Z,7.12
2023-01-19T10:34:00.305Z,7.25
2023-01-19T10:35:20.817Z,7.40
2023-01-19T10:36:36.398Z,7.51
2023-01-19T10:37:46.487Z,7.64
2023-01-19T10:38:57.722Z,7.79
2023-01-19T10:40:13.820Z,7.90
2023-01-19T10:42:49.518Z,8.19
2023-01-19T10:45:23.552Z,8.33
2023-01-19T10:46:38.974Z,8.30
2023-01-19T10:47:49.741Z,8.33
2023-01-19T10:48:58.419Z,8.41
2023-01-19T10:50:31.521Z,8.43
2023-01-19T10:51:48.778Z,8.48
2023-01-19T10:53:06.901Z,8.55
2023-01-19T10:54:16.831Z,8.60
2023-01-19T10:55:35.048Z,8.63
2023-01-19T10:56:47.441Z,8.67
2023-01-19T10:57:58.009Z,8.70
2023-01-19T11:00:37.899Z,8.90
2023-01-19T11:04:45.072Z,9.01
2023-01-19T11:06:17.348Z,8.95
2023-01-19T11:07:33.101Z,8.99
2023-01-19T11:08:48.427Z,9.03
2023-01-19T11:10:20.837Z,9.06
2023-01-19T11:11:35.515Z,9.06
2023-01-19T11:13:06.107Z,9.07
2023-01-19T11:14:21.470Z,9.09
2023-01-19T11:16:57.477Z,9.24
2023-01-19T11:18:06.983Z,9.16
2023-01-19T11:20:53.956Z,9.35
2023-01-19T11:23:40.078Z,9.35
2023-01-19T11:24:50.504Z,9.26
2023-01-19T11:27:21.128Z,9.40
2023-01-19T11:31:19.980Z,9.44
2023-01-19T11:32:28.694Z,9.32
2023-01-19T11:33:50.739Z,9.34
2023-01-19T11:35:00.459Z,9.34
2023-01-19T11:36:19.173Z,9.37
2023-01-19T11:37:33.740Z,9.36
2023-01-19T11:38:44.776Z,9.38
2023-01-19T11:41:19.817Z,9.54
2023-01-19T11:42:32.100Z,9.43
2023-01-19T11:43:49.076Z,9.44
2023-01-19T11:45:08.637Z,9.47
2023-01-19T11:46:18.291Z,9.50
2023-01-19T11:50:27.445Z,9.69
2023-01-19T11:51:45.599Z,9.59
2023-01-19T11:53:00.840Z,9.63
2023-01-19T11:54:24.233Z,9.67
2023-01-19T11:55:39.261Z,9.73
2023-01-19T11:56:51.704Z,9.73
2023-01-19T11:58:03.084Z,9.72
2023-01-19T16:19:29.471Z,8.66
2023-01-19T16:20:39.304Z,8.66
2023-01-19T16:21:48.290Z,8.74
2023-01-19T16:23:09.630Z,8.83
2023-01-19T16:25:23.547Z,9.26
2023-01-19T16:26:34.849Z,9.29
2023-01-19T16:27:44.336Z,9.47
2023-01-19T16:30:20.449Z,9.85
2023-01-19T16:31:30.498Z,9.86
2023-01-19T16:32:39.912Z,9.99
2023-01-19T16:33:49.289Z,10.10
2023-01-19T16:34:58.304Z,10.18
2023-01-19T16:36:34.457Z,10.27
2023-01-19T16:37:44.460Z,10.38
2023-01-19T16:38:55.149Z,10.47
2023-01-19T16:40:05.486Z,10.55
2023-01-19T16:41:15.044Z,10.64
2023-01-19T16:43:38.655Z,10.86
2023-01-19T16:44:47.813Z,10.82
2023-01-19T16:47:19.081Z,11.00
2023-01-19T16:49:43.494Z,11.08
2023-01-19T16:52:16.048Z,11.16
2023-01-19T16:53:24.716Z,11.08
2023-01-19T16:54:34.807Z,11.11
2023-01-19T16:55:43.332Z,11.15
2023-01-19T16:56:54.358Z,11.18
2023-01-19T16:58:02.902Z,11.21
2023-01-19T17:00:30.050Z,11.36
2023-01-19T17:01:39.517Z,11.24
2023-01-19T17:02:48.270Z,11.28
2023-01-19T17:03:57.931Z,11.30
2023-01-19T17:06:24.101Z,11.45
2023-01-19T17:07:34.846Z,11.34
2023-01-19T17:08:43.653Z,11.37
2023-01-19T17:12:32.406Z,11.51
2023-01-19T17:13:41.766Z,11.43
2023-01-19T17:14:50.874Z,11.45
2023-01-19T17:16:02.351Z,11.47
2023-01-19T17:17:10.892Z,11.49
2023-01-19T17:18:19.876Z,11.50
2023-01-19T17:20:44.301Z,11.63
2023-01-19T17:21:53.159Z,11.53
2023-01-19T17:23:01.809Z,11.54
2023-01-19T17:24:10.859Z,11.58
2023-01-19T17:25:19.489Z,11.59
2023-01-19T17:26:30.307Z,11.59
2023-01-19T17:27:39.158Z,11.62
2023-01-19T17:28:48.130Z,11.64
2023-01-19T17:29:56.964Z,11.66
2023-01-19T17:31:08.807Z,11.70
2023-01-19T17:32:19.333Z,11.70
2023-01-19T17:33:29.069Z,11.71
2023-01-19T17:34:38.760Z,11.75
2023-01-19T17:35:49.789Z,11.76
2023-01-19T17:38:16.245Z,11.88
2023-01-19T17:39:24.781Z,11.79
2023-01-19T17:40:34.757Z,11.79
2023-01-19T17:42:59.603Z,11.89
2023-01-19T17:44:10.890Z,11.79
2023-01-19T17:45:20.485Z,11.79
2023-01-19T17:47:50.225Z,11.93
2023-01-19T17:49:01.344Z,11.81
2023-01-19T17:50:11.561Z,11.80
2023-01-19T17:51:25.233Z,11.81
2023-01-19T17:52:36.061Z,11.83
2023-01-19T17:53:45.155Z,11.84
2023-01-19T17:54:54.161Z,11.81
2023-01-19T17:56:08.510Z,11.83
2023-01-19T17:57:17.486Z,11.85
2023-01-19T17:58:27.301Z,11.86
2023-01-19T17:59:37.349Z,11.87
2023-01-19T18:00:47.388Z,11.87
2023-01-19T18:01:56.925Z,11.89
2023-01-19T18:03:05.727Z,11.88
2023-01-19T18:04:15.094Z,11.88
2023-01-19T18:05:25.032Z,11.87
2023-01-19T18:06:33.939Z,11.86
2023-01-19T18:07:42.875Z,11.86
2023-01-19T18:08:53.824Z,11.86
2023-01-19T18:10:04.164Z,11.84
2023-01-19T18:11:15.458Z,11.82
2023-01-19T18:12:25.647Z,11.82
2023-01-19T18:13:35.041Z,11.81
2023-01-19T18:16:22.758Z,11.87
2023-01-19T18:17:32.645Z,11.75
2023-01-19T18:18:43.529Z,11.77
2023-01-19T18:19:54.111Z,11.75
2023-01-19T18:21:06.857Z,11.75
2023-01-19T18:22:15.583Z,11.73
2023-01-19T18:23:26.663Z,11.74
2023-01-19T18:24:35.982Z,11.72
2023-01-19T18:25:45.720Z,11.69
2023-01-19T18:26:55.777Z,11.67
2023-01-19T18:28:05.928Z,11.67
2023-01-19T18:29:16.271Z,11.63
2023-01-19T18:30:26.030Z,11.64
2023-01-19T18:31:34.865Z,11.66
2023-01-19T18:32:43.819Z,11.67
2023-01-19T18:33:52.733Z,11.66
2023-01-19T18:35:01.983Z,11.66
2023-01-19T18:36:11.198Z,11.66
2023-01-19T18:37:19.859Z,11.65
2023-01-19T18:38:29.934Z,11.65
2023-01-19T18:39:40.194Z,11.66
2023-01-19T18:40:49.378Z,11.65
2023-01-19T18:42:00.041Z,11.65
2023-01-19T18:43:10.245Z,11.65
2023-01-19T18:44:19.284Z,11.64
2023-01-19T18:45:28.329Z,11.64
2023-01-19T18:47:56.184Z,11.74
2023-01-19T18:49:05.765Z,11.62
2023-01-19T18:50:17.666Z,11.60
2023-01-19T18:51:26.214Z,11.60
2023-01-19T18:53:49.864Z,11.70
2023-01-19T18:55:00.452Z,11.57
2023-01-19T18:56:11.949Z,11.56
2023-01-19T18:57:21.503Z,11.54
2023-01-19T18:58:31.971Z,11.53
2023-01-19T18:59:44.325Z,11.51
2023-01-19T19:00:52.973Z,11.50
2023-01-19T19:02:03.671Z,11.49
2023-01-19T19:03:12.755Z,11.46
2023-01-19T19:04:21.498Z,11.45
2023-01-19T19:05:30.614Z,11.47
2023-01-19T19:06:39.669Z,11.48
2023-01-19T19:07:48.748Z,11.47
2023-01-19T19:09:00.879Z,11.48
2023-01-19T19:11:27.026Z,11.59
2023-01-19T19:12:36.440Z,11.49
2023-01-19T19:13:45.056Z,11.48
2023-01-19T19:14:53.819Z,11.49
2023-01-19T19:16:07.799Z,11.45
2023-01-19T19:17:17.624Z,11.45
2023-01-19T19:18:26.152Z,11.45
2023-01-19T19:19:34.761Z,11.42
2023-01-19T19:20:44.633Z,11.40
2023-01-19T19:21:53.191Z,11.38
2023-01-19T19:23:02.577Z,11.38
2023-01-19T19:24:12.980Z,11.35
2023-01-19T19:25:22.789Z,11.33
2023-01-19T19:26:35.853Z,11.33
2023-01-19T19:27:46.599Z,11.29
2023-01-19T19:28:56.481Z,11.30
2023-01-19T19:30:06.559Z,11.28
2023-01-19T19:32:35.877Z,11.37
2023-01-19T19:33:44.486Z,11.24
2023-01-19T19:34:59.028Z,11.23
2023-01-19T19:36:10.389Z,11.21
2023-01-19T19:37:22.064Z,11.21
2023-01-19T19:38:32.809Z,11.20
2023-01-19T19:39:41.244Z,11.16
2023-01-19T19:40:50.782Z,11.13
2023-01-19T19:42:01.613Z,11.14
2023-01-19T19:43:11.516Z,11.16
2023-01-19T19:44:20.340Z,11.12
2023-01-19T19:45:29.167Z,11.10
2023-01-19T19:46:40.892Z,11.08
2023-01-19T19:47:51.191Z,11.06
2023-01-19T19:48:59.856Z,11.05
2023-01-19T19:50:11.770Z,11.02
2023-01-19T19:51:28.549Z,11.01
2023-01-19T19:52:42.071Z,11.00
2023-01-19T22:12:26.247Z,8.29
2023-01-19T22:13:38.301Z,8.30
2023-01-19T22:14:47.835Z,8.38
2023-01-19T22:17:19.065Z,8.77
2023-01-19T22:18:28.794Z,8.79
2023-01-19T22:20:52.275Z,9.27
2023-01-19T22:22:01.192Z,9.29
2023-01-19T22:23:10.008Z,9.46
2023-01-19T22:24:19.621Z,9.58
2023-01-19T22:25:29.712Z,9.68
2023-01-19T22:26:39.830Z,9.78
2023-01-19T22:27:49.384Z,9.90
2023-01-19T22:29:01.102Z,9.97
2023-01-19T22:30:11.101Z,10.07
2023-01-19T22:32:35.126Z,10.34
2023-01-19T22:33:45.505Z,10.29
2023-01-19T22:34:54.873Z,10.34
2023-01-19T22:36:13.523Z,10.42
2023-01-19T22:37:22.489Z,10.46
2023-01-19T22:38:32.017Z,10.53
2023-01-19T22:39:41.542Z,10.56
2023-01-19T22:40:50.659Z,10.62
2023-01-19T22:42:02.833Z,10.66
2023-01-19T22:43:11.764Z,10.73
2023-01-19T22:44:22.352Z,10.75
2023-01-19T22:45:33.229Z,10.79
2023-01-19T22:46:44.305Z,10.83
2023-01-19T22:47:52.806Z,10.83
2023-01-19T22:49:02.730Z,10.86
2023-01-19T22:50:12.259Z,10.87
2023-01-19T22:51:23.956Z,10.92
2023-01-19T22:52:33.179Z,10.90
2023-01-19T22:53:43.269Z,10.92
2023-01-19T22:56:18.584Z,11.07
2023-01-19T22:57:28.239Z,10.92
2023-01-19T22:58:39.531Z,10.93
2023-01-19T22:59:48.619Z,11.01
2023-01-19T23:02:16.217Z,11.18
2023-01-19T23:03:25.817Z,11.03
2023-01-19T23:04:35.011Z,11.09
2023-01-19T23:07:18.901Z,11.11
2023-01-19T23:08:28.416Z,11.08
2023-01-19T23:09:37.430Z,11.11
2023-01-19T23:10:47.801Z,11.15
2023-01-19T23:11:56.452Z,11.05
2023-01-19T23:13:05.669Z,11.07
2023-01-19T23:14:19.138Z,11.09
2023-01-19T23:15:28.148Z,11.12
2023-01-19T23:16:38.509Z,11.24
2023-01-19T23:19:04.866Z,11.42
2023-01-19T23:20:14.525Z,11.25
2023-01-19T23:21:25.435Z,11.32
2023-01-19T23:22:33.986Z,11.38
2023-01-19T23:23:44.780Z,11.37
2023-01-19T23:24:53.080Z,11.36
2023-01-19T23:26:09.232Z,11.39
2023-01-19T23:27:18.826Z,11.40
2023-01-19T23:28:27.922Z,11.41
2023-01-19T23:29:36.870Z,11.44
2023-01-19T23:32:03.323Z,11.57
2023-01-19T23:33:12.899Z,11.46
2023-01-19T23:34:22.831Z,11.46
2023-01-19T23:35:35.501Z,11.47
2023-01-19T23:36:45.995Z,11.44
2023-01-19T23:37:55.868Z,11.44
2023-01-19T23:40:28.447Z,11.55
2023-01-19T23:41:37.629Z,11.45
2023-01-19T23:42:47.258Z,11.43
2023-01-19T23:43:56.574Z,11.43
2023-01-19T23:45:07.707Z,11.46
2023-01-19T23:46:18.936Z,11.46
2023-01-19T23:47:29.178Z,11.48
2023-01-19T23:48:38.493Z,11.50
2023-01-19T23:49:48.127Z,11.50
2023-01-19T23:50:57.983Z,11.49
2023-01-19T23:52:07.025Z,11.50
2023-01-19T23:53:16.389Z,11.48
2023-01-19T23:54:26.019Z,11.47
2023-01-19T23:55:35.146Z,11.50
2023-01-19T23:56:44.651Z,11.47
2023-01-19T23:57:54.814Z,11.45
2023-01-19T23:59:10.375Z,11.48
